sensor_id;sensor_type;location;lat;lon;timestamp;P1;durP1;ratioP1;P2;durP2;ratioP2
17214;SDS011;8723;51.502;6.918;2023-03-20T00:01:22;30.55;;;27.38;;
17214;SDS011;8723;51.502;6.918;2023-03-20T00:03:50;28.48;;;25.55;;
17214;SDS011;8723;51.502;6.918;2023-03-20T00:06:19;26.27;;;23.53;;
17214;SDS011;8723;51.502;6.918;2023-03-20T00:08:47;26.00;;;22.92;;
17214;SDS011;8723;51.502;6.918;2023-03-20T00:11:26;28.80;;;25.90;;
17214;SDS011;8723;51.502;6.918;2023-03-20T00:13:54;28.27;;;25.37;;
17214;SDS011;8723;51.502;6.918;2023-03-20T00:16:22;23.43;;;21.07;;
17214;SDS011;8723;51.502;6.918;2023-03-20T00:18:50;25.90;;;23.33;;
17214;SDS011;8723;51.502;6.918;2023-03-20T00:21:21;28.15;;;25.23;;
17214;SDS011;8723;51.502;6.918;2023-03-20T00:23:48;30.40;;;26.37;;
17214;SDS011;8723;51.502;6.918;2023-03-20T00:26:16;27.10;;;24.23;;
17214;SDS011;8723;51.502;6.918;2023-03-20T00:28:44;32.40;;;29.15;;
17214;SDS011;8723;51.502;6.918;2023-03-20T00:31:19;28.50;;;25.75;;
17214;SDS011;8723;51.502;6.918;2023-03-20T00:33:48;22.30;;;20.10;;
17214;SDS011;8723;51.502;6.918;2023-03-20T00:36:15;33.03;;;29.63;;
17214;SDS011;8723;51.502;6.918;2023-03-20T00:38:44;25.85;;;23.23;;
17214;SDS011;8723;51.502;6.918;2023-03-20T00:41:14;29.13;;;26.25;;
17214;SDS011;8723;51.502;6.918;2023-03-20T00:43:46;27.73;;;24.98;;
17214;SDS011;8723;51.502;6.918;2023-03-20T00:46:14;28.60;;;25.77;;
17214;SDS011;8723;51.502;6.918;2023-03-20T00:48:41;26.17;;;23.45;;
17214;SDS011;8723;51.502;6.918;2023-03-20T00:51:08;27.35;;;24.45;;
17214;SDS011;8723;51.502;6.918;2023-03-20T00:53:35;27.05;;;24.15;;
17214;SDS011;8723;51.502;6.918;2023-03-20T00:56:04;25.05;;;22.45;;
17214;SDS011;8723;51.502;6.918;2023-03-20T00:58:32;22.47;;;20.23;;
17214;SDS011;8723;51.502;6.918;2023-03-20T01:00:59;22.95;;;20.75;;
17214;SDS011;8723;51.502;6.918;2023-03-20T01:03:26;21.35;;;19.35;;
17214;SDS011;8723;51.502;6.918;2023-03-20T01:05:54;20.27;;;18.27;;
17214;SDS011;8723;51.502;6.918;2023-03-20T01:08:23;20.40;;;18.35;;
17214;SDS011;8723;51.502;6.918;2023-03-20T01:10:52;21.33;;;19.02;;
17214;SDS011;8723;51.502;6.918;2023-03-20T01:13:24;23.00;;;20.70;;
17214;SDS011;8723;51.502;6.918;2023-03-20T01:15:52;21.52;;;19.42;;
17214;SDS011;8723;51.502;6.918;2023-03-20T01:18:20;21.67;;;19.45;;
17214;SDS011;8723;51.502;6.918;2023-03-20T01:20:48;22.10;;;19.95;;
17214;SDS011;8723;51.502;6.918;2023-03-20T01:23:17;21.65;;;19.52;;
17214;SDS011;8723;51.502;6.918;2023-03-20T01:25:44;22.80;;;20.48;;
17214;SDS011;8723;51.502;6.918;2023-03-20T01:28:13;23.63;;;21.45;;
17214;SDS011;8723;51.502;6.918;2023-03-20T01:30:42;21.23;;;19.23;;
17214;SDS011;8723;51.502;6.918;2023-03-20T01:33:13;17.45;;;15.85;;
17214;SDS011;8723;51.502;6.918;2023-03-20T01:35:41;18.08;;;16.27;;
17214;SDS011;8723;51.502;6.918;2023-03-20T01:38:10;18.48;;;16.63;;
17214;SDS011;8723;51.502;6.918;2023-03-20T01:40:39;16.33;;;14.75;;
17214;SDS011;8723;51.502;6.918;2023-03-20T01:43:09;18.30;;;16.60;;
17214;SDS011;8723;51.502;6.918;2023-03-20T01:45:44;16.58;;;14.95;;
17214;SDS011;8723;51.502;6.918;2023-03-20T01:48:14;16.10;;;14.50;;
17214;SDS011;8723;51.502;6.918;2023-03-20T01:50:42;16.67;;;15.07;;
17214;SDS011;8723;51.502;6.918;2023-03-20T01:53:10;16.85;;;15.07;;
17214;SDS011;8723;51.502;6.918;2023-03-20T01:55:38;16.10;;;14.63;;
17214;SDS011;8723;51.502;6.918;2023-03-20T01:58:08;16.95;;;15.35;;
17214;SDS011;8723;51.502;6.918;2023-03-20T02:00:37;17.10;;;15.43;;
17214;SDS011;8723;51.502;6.918;2023-03-20T02:03:06;15.10;;;13.70;;
17214;SDS011;8723;51.502;6.918;2023-03-20T02:05:34;15.57;;;14.17;;
17214;SDS011;8723;51.502;6.918;2023-03-20T02:08:05;14.00;;;12.60;;
17214;SDS011;8723;51.502;6.918;2023-03-20T02:10:34;10.05;;;9.10;;
17214;SDS011;8723;51.502;6.918;2023-03-20T02:13:02;10.25;;;9.35;;
17214;SDS011;8723;51.502;6.918;2023-03-20T02:15:29;8.50;;;7.70;;
17214;SDS011;8723;51.502;6.918;2023-03-20T02:17:56;8.37;;;7.60;;
17214;SDS011;8723;51.502;6.918;2023-03-20T02:20:29;8.27;;;7.47;;
17214;SDS011;8723;51.502;6.918;2023-03-20T02:26:01;7.53;;;6.82;;
17214;SDS011;8723;51.502;6.918;2023-03-20T02:31:23;7.90;;;7.20;;
17214;SDS011;8723;51.502;6.918;2023-03-20T02:34:03;7.57;;;6.87;;
17214;SDS011;8723;51.502;6.918;2023-03-20T02:36:48;8.35;;;7.57;;
17214;SDS011;8723;51.502;6.918;2023-03-20T02:39:24;6.82;;;6.22;;
17214;SDS011;8723;51.502;6.918;2023-03-20T02:41:56;6.97;;;6.32;;
17214;SDS011;8723;51.502;6.918;2023-03-20T02:44:29;7.03;;;6.43;;
17214;SDS011;8723;51.502;6.918;2023-03-20T02:46:59;7.28;;;6.57;;
17214;SDS011;8723;51.502;6.918;2023-03-20T02:49:32;8.38;;;7.57;;
17214;SDS011;8723;51.502;6.918;2023-03-20T02:52:03;8.37;;;7.53;;
17214;SDS011;8723;51.502;6.918;2023-03-20T02:54:35;8.00;;;7.30;;
17214;SDS011;8723;51.502;6.918;2023-03-20T02:57:05;7.70;;;7.00;;
17214;SDS011;8723;51.502;6.918;2023-03-20T02:59:34;7.95;;;7.25;;
17214;SDS011;8723;51.502;6.918;2023-03-20T03:02:06;7.50;;;6.90;;
17214;SDS011;8723;51.502;6.918;2023-03-20T03:04:34;8.17;;;7.43;;
17214;SDS011;8723;51.502;6.918;2023-03-20T03:07:02;7.60;;;6.90;;
17214;SDS011;8723;51.502;6.918;2023-03-20T03:09:32;7.35;;;6.65;;
17214;SDS011;8723;51.502;6.918;2023-03-20T03:12:02;6.70;;;6.10;;
17214;SDS011;8723;51.502;6.918;2023-03-20T03:14:31;6.97;;;6.38;;
17214;SDS011;8723;51.502;6.918;2023-03-20T03:17:01;7.15;;;6.55;;
17214;SDS011;8723;51.502;6.918;2023-03-20T03:19:30;6.87;;;6.27;;
17214;SDS011;8723;51.502;6.918;2023-03-20T03:21:58;6.97;;;6.38;;
17214;SDS011;8723;51.502;6.918;2023-03-20T03:24:28;7.63;;;6.93;;
17214;SDS011;8723;51.502;6.918;2023-03-20T03:26:57;7.32;;;6.63;;
17214;SDS011;8723;51.502;6.918;2023-03-20T03:29:29;7.25;;;6.55;;
17214;SDS011;8723;51.502;6.918;2023-03-20T03:31:58;7.23;;;6.63;;
17214;SDS011;8723;51.502;6.918;2023-03-20T03:34:26;8.55;;;7.75;;
17214;SDS011;8723;51.502;6.918;2023-03-20T03:36:55;7.78;;;7.07;;
17214;SDS011;8723;51.502;6.918;2023-03-20T03:39:26;9.80;;;8.90;;
17214;SDS011;8723;51.502;6.918;2023-03-20T03:41:56;10.30;;;9.38;;
17214;SDS011;8723;51.502;6.918;2023-03-20T03:44:28;9.25;;;8.35;;
17214;SDS011;8723;51.502;6.918;2023-03-20T03:46:57;10.13;;;9.13;;
17214;SDS011;8723;51.502;6.918;2023-03-20T03:49:26;11.00;;;9.90;;
17214;SDS011;8723;51.502;6.918;2023-03-20T03:51:55;14.02;;;12.18;;
17214;SDS011;8723;51.502;6.918;2023-03-20T03:54:23;12.38;;;11.15;;
17214;SDS011;8723;51.502;6.918;2023-03-20T03:56:52;14.60;;;13.07;;
17214;SDS011;8723;51.502;6.918;2023-03-20T03:59:22;14.20;;;12.77;;
17214;SDS011;8723;51.502;6.918;2023-03-20T04:01:52;13.55;;;12.23;;
17214;SDS011;8723;51.502;6.918;2023-03-20T04:04:20;15.60;;;13.47;;
17214;SDS011;8723;51.502;6.918;2023-03-20T04:06:47;14.65;;;12.90;;
17214;SDS011;8723;51.502;6.918;2023-03-20T04:09:15;15.40;;;13.80;;
17214;SDS011;8723;51.502;6.918;2023-03-20T04:11:42;12.43;;;11.13;;
17214;SDS011;8723;51.502;6.918;2023-03-20T04:14:09;12.65;;;11.35;;
17214;SDS011;8723;51.502;6.918;2023-03-20T04:16:36;15.18;;;13.57;;
17214;SDS011;8723;51.502;6.918;2023-03-20T04:19:05;14.27;;;12.73;;
17214;SDS011;8723;51.502;6.918;2023-03-20T04:21:32;14.80;;;13.10;;
17214;SDS011;8723;51.502;6.918;2023-03-20T04:23:59;14.67;;;13.07;;
17214;SDS011;8723;51.502;6.918;2023-03-20T04:26:26;13.45;;;12.10;;
17214;SDS011;8723;51.502;6.918;2023-03-20T04:28:53;14.45;;;12.95;;
17214;SDS011;8723;51.502;6.918;2023-03-20T04:31:21;14.03;;;12.53;;
17214;SDS011;8723;51.502;6.918;2023-03-20T04:33:48;14.70;;;13.10;;
17214;SDS011;8723;51.502;6.918;2023-03-20T04:36:16;14.90;;;13.40;;
17214;SDS011;8723;51.502;6.918;2023-03-20T04:38:43;16.50;;;14.70;;
17214;SDS011;8723;51.502;6.918;2023-03-20T04:41:11;16.02;;;14.40;;
17214;SDS011;8723;51.502;6.918;2023-03-20T04:43:38;16.05;;;14.43;;
17214;SDS011;8723;51.502;6.918;2023-03-20T04:46:05;16.00;;;14.40;;
17214;SDS011;8723;51.502;6.918;2023-03-20T04:48:33;17.33;;;15.35;;
17214;SDS011;8723;51.502;6.918;2023-03-20T04:51:00;17.50;;;15.60;;
17214;SDS011;8723;51.502;6.918;2023-03-20T04:53:28;20.60;;;17.83;;
17214;SDS011;8723;51.502;6.918;2023-03-20T04:55:55;18.95;;;16.73;;
17214;SDS011;8723;51.502;6.918;2023-03-20T04:58:22;22.92;;;20.42;;
17214;SDS011;8723;51.502;6.918;2023-03-20T05:00:49;23.33;;;19.45;;
17214;SDS011;8723;51.502;6.918;2023-03-20T05:03:17;20.17;;;17.98;;
17214;SDS011;8723;51.502;6.918;2023-03-20T05:05:44;22.48;;;19.50;;
17214;SDS011;8723;51.502;6.918;2023-03-20T05:08:11;25.38;;;21.73;;
17214;SDS011;8723;51.502;6.918;2023-03-20T05:10:39;21.45;;;19.10;;
17214;SDS011;8723;51.502;6.918;2023-03-20T05:13:06;23.15;;;19.85;;
17214;SDS011;8723;51.502;6.918;2023-03-20T05:15:33;22.70;;;19.35;;
17214;SDS011;8723;51.502;6.918;2023-03-20T05:18:00;23.27;;;19.75;;
17214;SDS011;8723;51.502;6.918;2023-03-20T05:20:28;27.63;;;22.75;;
17214;SDS011;8723;51.502;6.918;2023-03-20T05:22:55;23.55;;;19.67;;
17214;SDS011;8723;51.502;6.918;2023-03-20T05:25:22;27.52;;;22.88;;
17214;SDS011;8723;51.502;6.918;2023-03-20T05:27:50;24.38;;;21.02;;
17214;SDS011;8723;51.502;6.918;2023-03-20T05:30:17;33.03;;;26.73;;
17214;SDS011;8723;51.502;6.918;2023-03-20T05:32:45;36.20;;;28.55;;
17214;SDS011;8723;51.502;6.918;2023-03-20T05:35:12;28.38;;;22.02;;
17214;SDS011;8723;51.502;6.918;2023-03-20T05:37:39;30.88;;;23.95;;
17214;SDS011;8723;51.502;6.918;2023-03-20T05:40:06;32.25;;;26.63;;
17214;SDS011;8723;51.502;6.918;2023-03-20T05:42:34;36.45;;;26.00;;
17214;SDS011;8723;51.502;6.918;2023-03-20T05:45:02;35.90;;;28.08;;
17214;SDS011;8723;51.502;6.918;2023-03-20T05:47:29;31.58;;;25.75;;
17214;SDS011;8723;51.502;6.918;2023-03-20T05:49:57;27.33;;;22.23;;
17214;SDS011;8723;51.502;6.918;2023-03-20T05:52:24;31.95;;;25.13;;
17214;SDS011;8723;51.502;6.918;2023-03-20T05:54:51;27.23;;;22.20;;
17214;SDS011;8723;51.502;6.918;2023-03-20T05:57:18;27.52;;;22.38;;
17214;SDS011;8723;51.502;6.918;2023-03-20T05:59:46;26.17;;;19.83;;
17214;SDS011;8723;51.502;6.918;2023-03-20T06:02:14;26.38;;;20.13;;
17214;SDS011;8723;51.502;6.918;2023-03-20T06:04:41;29.25;;;22.20;;
17214;SDS011;8723;51.502;6.918;2023-03-20T06:07:08;26.08;;;21.40;;
17214;SDS011;8723;51.502;6.918;2023-03-20T06:09:36;26.35;;;20.17;;
17214;SDS011;8723;51.502;6.918;2023-03-20T06:12:03;26.90;;;19.95;;
17214;SDS011;8723;51.502;6.918;2023-03-20T06:14:30;24.97;;;20.17;;
17214;SDS011;8723;51.502;6.918;2023-03-20T06:16:57;21.75;;;18.55;;
17214;SDS011;8723;51.502;6.918;2023-03-20T06:19:26;22.20;;;17.50;;
17214;SDS011;8723;51.502;6.918;2023-03-20T06:21:53;18.83;;;16.70;;
17214;SDS011;8723;51.502;6.918;2023-03-20T06:24:20;21.85;;;17.13;;
17214;SDS011;8723;51.502;6.918;2023-03-20T06:26:47;19.55;;;16.67;;
17214;SDS011;8723;51.502;6.918;2023-03-20T06:29:15;17.92;;;15.30;;
17214;SDS011;8723;51.502;6.918;2023-03-20T06:31:42;20.05;;;16.23;;
17214;SDS011;8723;51.502;6.918;2023-03-20T06:34:09;18.73;;;15.48;;
17214;SDS011;8723;51.502;6.918;2023-03-20T06:36:37;17.63;;;14.57;;
17214;SDS011;8723;51.502;6.918;2023-03-20T06:39:04;16.95;;;13.68;;
17214;SDS011;8723;51.502;6.918;2023-03-20T06:41:32;17.83;;;14.52;;
17214;SDS011;8723;51.502;6.918;2023-03-20T06:43:59;17.88;;;15.68;;
17214;SDS011;8723;51.502;6.918;2023-03-20T06:46:26;17.98;;;14.32;;
17214;SDS011;8723;51.502;6.918;2023-03-20T06:48:53;16.67;;;14.37;;
17214;SDS011;8723;51.502;6.918;2023-03-20T06:51:21;17.35;;;14.98;;
17214;SDS011;8723;51.502;6.918;2023-03-20T06:53:49;16.70;;;14.45;;
17214;SDS011;8723;51.502;6.918;2023-03-20T06:56:16;17.13;;;14.27;;
17214;SDS011;8723;51.502;6.918;2023-03-20T06:58:43;16.42;;;14.63;;
17214;SDS011;8723;51.502;6.918;2023-03-20T07:01:11;17.65;;;14.75;;
17214;SDS011;8723;51.502;6.918;2023-03-20T07:03:39;16.95;;;13.48;;
17214;SDS011;8723;51.502;6.918;2023-03-20T07:06:06;17.05;;;14.13;;
17214;SDS011;8723;51.502;6.918;2023-03-20T07:08:33;14.27;;;11.98;;
17214;SDS011;8723;51.502;6.918;2023-03-20T07:11:02;13.32;;;11.93;;
17214;SDS011;8723;51.502;6.918;2023-03-20T07:13:29;17.35;;;12.85;;
17214;SDS011;8723;51.502;6.918;2023-03-20T07:15:59;12.55;;;11.25;;
17214;SDS011;8723;51.502;6.918;2023-03-20T07:18:26;13.18;;;10.48;;
17214;SDS011;8723;51.502;6.918;2023-03-20T07:20:53;12.47;;;10.90;;
17214;SDS011;8723;51.502;6.918;2023-03-20T07:23:24;11.98;;;10.40;;
17214;SDS011;8723;51.502;6.918;2023-03-20T07:25:51;14.07;;;10.77;;
17214;SDS011;8723;51.502;6.918;2023-03-20T07:28:19;12.93;;;10.50;;
17214;SDS011;8723;51.502;6.918;2023-03-20T07:30:46;17.85;;;10.63;;
17214;SDS011;8723;51.502;6.918;2023-03-20T07:33:13;12.93;;;10.50;;
17214;SDS011;8723;51.502;6.918;2023-03-20T07:35:40;15.05;;;11.63;;
17214;SDS011;8723;51.502;6.918;2023-03-20T07:38:08;12.15;;;10.85;;
17214;SDS011;8723;51.502;6.918;2023-03-20T07:40:35;16.58;;;12.20;;
17214;SDS011;8723;51.502;6.918;2023-03-20T07:43:02;17.07;;;12.33;;
17214;SDS011;8723;51.502;6.918;2023-03-20T07:45:31;16.33;;;12.23;;
17214;SDS011;8723;51.502;6.918;2023-03-20T07:47:58;12.77;;;10.98;;
17214;SDS011;8723;51.502;6.918;2023-03-20T07:50:25;17.73;;;13.43;;
17214;SDS011;8723;51.502;6.918;2023-03-20T07:52:52;15.70;;;12.20;;
17214;SDS011;8723;51.502;6.918;2023-03-20T07:55:19;16.70;;;12.70;;
17214;SDS011;8723;51.502;6.918;2023-03-20T07:57:47;19.83;;;15.20;;
17214;SDS011;8723;51.502;6.918;2023-03-20T08:00:15;20.38;;;14.13;;
17214;SDS011;8723;51.502;6.918;2023-03-20T08:02:44;19.23;;;14.18;;
17214;SDS011;8723;51.502;6.918;2023-03-20T08:05:11;19.27;;;14.83;;
17214;SDS011;8723;51.502;6.918;2023-03-20T08:07:38;19.85;;;14.77;;
17214;SDS011;8723;51.502;6.918;2023-03-20T08:10:05;17.75;;;13.90;;
17214;SDS011;8723;51.502;6.918;2023-03-20T08:12:33;16.83;;;13.60;;
17214;SDS011;8723;51.502;6.918;2023-03-20T08:15:00;16.90;;;13.90;;
17214;SDS011;8723;51.502;6.918;2023-03-20T08:17:27;16.10;;;12.38;;
17214;SDS011;8723;51.502;6.918;2023-03-20T08:19:56;13.88;;;11.63;;
17214;SDS011;8723;51.502;6.918;2023-03-20T08:22:23;16.52;;;13.40;;
17214;SDS011;8723;51.502;6.918;2023-03-20T08:24:50;15.48;;;12.45;;
17214;SDS011;8723;51.502;6.918;2023-03-20T08:27:17;15.43;;;11.02;;
17214;SDS011;8723;51.502;6.918;2023-03-20T08:29:44;13.68;;;10.93;;
17214;SDS011;8723;51.502;6.918;2023-03-20T08:32:11;15.80;;;11.30;;
17214;SDS011;8723;51.502;6.918;2023-03-20T08:34:39;13.73;;;11.32;;
17214;SDS011;8723;51.502;6.918;2023-03-20T08:37:07;13.38;;;9.93;;
17214;SDS011;8723;51.502;6.918;2023-03-20T08:39:36;13.13;;;10.43;;
17214;SDS011;8723;51.502;6.918;2023-03-20T08:42:04;11.50;;;9.57;;
17214;SDS011;8723;51.502;6.918;2023-03-20T08:44:31;14.27;;;9.80;;
17214;SDS011;8723;51.502;6.918;2023-03-20T08:46:58;10.02;;;8.63;;
17214;SDS011;8723;51.502;6.918;2023-03-20T08:49:26;10.50;;;8.57;;
17214;SDS011;8723;51.502;6.918;2023-03-20T08:51:53;10.90;;;7.63;;
17214;SDS011;8723;51.502;6.918;2023-03-20T08:54:22;10.25;;;8.40;;
17214;SDS011;8723;51.502;6.918;2023-03-20T08:56:49;10.02;;;8.05;;
17214;SDS011;8723;51.502;6.918;2023-03-20T08:59:17;10.27;;;7.60;;
17214;SDS011;8723;51.502;6.918;2023-03-20T09:01:45;8.93;;;6.63;;
17214;SDS011;8723;51.502;6.918;2023-03-20T09:04:12;9.80;;;7.00;;
17214;SDS011;8723;51.502;6.918;2023-03-20T09:06:39;11.70;;;6.80;;
17214;SDS011;8723;51.502;6.918;2023-03-20T09:09:07;7.60;;;5.70;;
17214;SDS011;8723;51.502;6.918;2023-03-20T09:11:35;8.07;;;5.78;;
17214;SDS011;8723;51.502;6.918;2023-03-20T09:14:03;8.35;;;5.90;;
17214;SDS011;8723;51.502;6.918;2023-03-20T09:16:30;7.03;;;5.38;;
17214;SDS011;8723;51.502;6.918;2023-03-20T09:18:57;7.00;;;5.00;;
17214;SDS011;8723;51.502;6.918;2023-03-20T09:21:25;8.15;;;5.22;;
17214;SDS011;8723;51.502;6.918;2023-03-20T09:23:52;6.70;;;5.20;;
17214;SDS011;8723;51.502;6.918;2023-03-20T09:26:20;7.20;;;4.90;;
17214;SDS011;8723;51.502;6.918;2023-03-20T09:28:48;5.05;;;3.83;;
17214;SDS011;8723;51.502;6.918;2023-03-20T09:31:15;6.25;;;4.50;;
17214;SDS011;8723;51.502;6.918;2023-03-20T09:33:42;6.53;;;4.60;;
17214;SDS011;8723;51.502;6.918;2023-03-20T09:36:10;6.10;;;3.97;;
17214;SDS011;8723;51.502;6.918;2023-03-20T09:38:37;4.90;;;3.80;;
17214;SDS011;8723;51.502;6.918;2023-03-20T09:41:06;5.80;;;3.50;;
17214;SDS011;8723;51.502;6.918;2023-03-20T09:43:43;4.90;;;3.00;;
17214;SDS011;8723;51.502;6.918;2023-03-20T09:46:16;5.88;;;3.25;;
17214;SDS011;8723;51.502;6.918;2023-03-20T09:48:47;5.68;;;3.30;;
17214;SDS011;8723;51.502;6.918;2023-03-20T09:51:17;3.60;;;2.85;;
17214;SDS011;8723;51.502;6.918;2023-03-20T09:53:46;6.07;;;3.07;;
17214;SDS011;8723;51.502;6.918;2023-03-20T09:56:16;5.22;;;2.80;;
17214;SDS011;8723;51.502;6.918;2023-03-20T09:58:45;5.22;;;3.22;;
17214;SDS011;8723;51.502;6.918;2023-03-20T10:01:16;6.80;;;3.08;;
17214;SDS011;8723;51.502;6.918;2023-03-20T10:03:46;4.45;;;2.95;;
17214;SDS011;8723;51.502;6.918;2023-03-20T10:06:16;5.65;;;3.03;;
17214;SDS011;8723;51.502;6.918;2023-03-20T10:08:43;5.33;;;3.07;;
17214;SDS011;8723;51.502;6.918;2023-03-20T10:11:15;4.90;;;2.85;;
17214;SDS011;8723;51.502;6.918;2023-03-20T10:13:49;5.17;;;3.00;;
17214;SDS011;8723;51.502;6.918;2023-03-20T10:16:23;4.63;;;2.97;;
17214;SDS011;8723;51.502;6.918;2023-03-20T10:18:55;4.38;;;2.80;;
17214;SDS011;8723;51.502;6.918;2023-03-20T10:21:23;6.30;;;3.70;;
17214;SDS011;8723;51.502;6.918;2023-03-20T10:23:54;4.63;;;3.28;;
17214;SDS011;8723;51.502;6.918;2023-03-20T10:26:25;4.50;;;2.97;;
17214;SDS011;8723;51.502;6.918;2023-03-20T10:28:54;7.35;;;3.35;;
17214;SDS011;8723;51.502;6.918;2023-03-20T10:31:30;4.13;;;3.00;;
17214;SDS011;8723;51.502;6.918;2023-03-20T10:34:03;5.20;;;3.30;;
17214;SDS011;8723;51.502;6.918;2023-03-20T10:36:39;4.65;;;3.25;;
17214;SDS011;8723;51.502;6.918;2023-03-20T10:39:09;6.00;;;3.20;;
17214;SDS011;8723;51.502;6.918;2023-03-20T10:41:39;5.82;;;3.28;;
17214;SDS011;8723;51.502;6.918;2023-03-20T10:44:09;5.57;;;3.38;;
17214;SDS011;8723;51.502;6.918;2023-03-20T10:46:39;5.07;;;3.47;;
17214;SDS011;8723;51.502;6.918;2023-03-20T10:49:09;4.93;;;3.20;;
17214;SDS011;8723;51.502;6.918;2023-03-20T10:51:39;4.20;;;3.20;;
17214;SDS011;8723;51.502;6.918;2023-03-20T10:54:11;5.63;;;3.30;;
17214;SDS011;8723;51.502;6.918;2023-03-20T10:56:41;4.60;;;3.25;;
17214;SDS011;8723;51.502;6.918;2023-03-20T10:59:11;6.53;;;3.17;;
17214;SDS011;8723;51.502;6.918;2023-03-20T11:01:43;5.53;;;2.90;;
17214;SDS011;8723;51.502;6.918;2023-03-20T11:04:10;5.13;;;3.10;;
17214;SDS011;8723;51.502;6.918;2023-03-20T11:06:39;5.40;;;3.20;;
17214;SDS011;8723;51.502;6.918;2023-03-20T11:09:09;5.47;;;2.92;;
17214;SDS011;8723;51.502;6.918;2023-03-20T11:11:36;4.30;;;2.70;;
17214;SDS011;8723;51.502;6.918;2023-03-20T11:14:08;6.83;;;3.10;;
17214;SDS011;8723;51.502;6.918;2023-03-20T11:16:36;5.97;;;2.60;;
17214;SDS011;8723;51.502;6.918;2023-03-20T11:19:06;3.80;;;2.67;;
17214;SDS011;8723;51.502;6.918;2023-03-20T11:21:34;4.68;;;2.80;;
17214;SDS011;8723;51.502;6.918;2023-03-20T11:24:03;5.55;;;2.53;;
17214;SDS011;8723;51.502;6.918;2023-03-20T11:26:34;4.65;;;2.90;;
17214;SDS011;8723;51.502;6.918;2023-03-20T11:29:02;4.35;;;2.50;;
17214;SDS011;8723;51.502;6.918;2023-03-20T11:31:32;4.72;;;2.50;;
17214;SDS011;8723;51.502;6.918;2023-03-20T11:34:08;4.35;;;2.53;;
17214;SDS011;8723;51.502;6.918;2023-03-20T11:36:36;7.28;;;2.72;;
17214;SDS011;8723;51.502;6.918;2023-03-20T11:39:06;5.65;;;2.55;;
17214;SDS011;8723;51.502;6.918;2023-03-20T11:41:34;3.65;;;2.30;;
17214;SDS011;8723;51.502;6.918;2023-03-20T11:44:18;5.87;;;2.43;;
17214;SDS011;8723;51.502;6.918;2023-03-20T11:46:46;3.88;;;2.13;;
17214;SDS011;8723;51.502;6.918;2023-03-20T11:49:22;3.25;;;2.05;;
17214;SDS011;8723;51.502;6.918;2023-03-20T11:51:51;3.70;;;2.58;;
17214;SDS011;8723;51.502;6.918;2023-03-20T11:54:20;4.60;;;2.78;;
17214;SDS011;8723;51.502;6.918;2023-03-20T11:56:51;5.43;;;2.90;;
17214;SDS011;8723;51.502;6.918;2023-03-20T11:59:18;3.75;;;3.00;;
17214;SDS011;8723;51.502;6.918;2023-03-20T12:01:46;4.85;;;2.70;;
17214;SDS011;8723;51.502;6.918;2023-03-20T12:04:15;4.70;;;2.70;;
17214;SDS011;8723;51.502;6.918;2023-03-20T12:06:48;4.15;;;2.70;;
17214;SDS011;8723;51.502;6.918;2023-03-20T12:09:23;5.90;;;2.88;;
17214;SDS011;8723;51.502;6.918;2023-03-20T12:11:51;5.72;;;3.38;;
17214;SDS011;8723;51.502;6.918;2023-03-20T12:14:21;7.72;;;3.33;;
17214;SDS011;8723;51.502;6.918;2023-03-20T12:16:51;4.57;;;3.20;;
17214;SDS011;8723;51.502;6.918;2023-03-20T12:19:19;3.00;;;2.70;;
17214;SDS011;8723;51.502;6.918;2023-03-20T12:21:53;3.92;;;2.65;;
17214;SDS011;8723;51.502;6.918;2023-03-20T12:24:25;6.22;;;3.38;;
17214;SDS011;8723;51.502;6.918;2023-03-20T12:26:53;6.95;;;3.13;;
17214;SDS011;8723;51.502;6.918;2023-03-20T12:29:25;5.30;;;3.03;;
17214;SDS011;8723;51.502;6.918;2023-03-20T12:31:53;3.80;;;2.70;;
17214;SDS011;8723;51.502;6.918;2023-03-20T12:34:21;5.22;;;2.65;;
17214;SDS011;8723;51.502;6.918;2023-03-20T12:36:51;3.38;;;2.42;;
17214;SDS011;8723;51.502;6.918;2023-03-20T12:39:20;3.78;;;2.55;;
17214;SDS011;8723;51.502;6.918;2023-03-20T12:41:56;5.45;;;2.70;;
17214;SDS011;8723;51.502;6.918;2023-03-20T12:44:31;5.47;;;3.15;;
17214;SDS011;8723;51.502;6.918;2023-03-20T12:47:04;5.47;;;3.33;;
17214;SDS011;8723;51.502;6.918;2023-03-20T12:49:37;5.65;;;3.50;;
17214;SDS011;8723;51.502;6.918;2023-03-20T12:52:11;5.03;;;3.20;;
17214;SDS011;8723;51.502;6.918;2023-03-20T12:57:30;7.72;;;3.80;;
17214;SDS011;8723;51.502;6.918;2023-03-20T13:00:04;5.55;;;3.40;;
17214;SDS011;8723;51.502;6.918;2023-03-20T13:02:39;5.97;;;3.78;;
17214;SDS011;8723;51.502;6.918;2023-03-20T13:05:14;6.15;;;4.53;;
17214;SDS011;8723;51.502;6.918;2023-03-20T13:07:48;5.63;;;4.00;;
17214;SDS011;8723;51.502;6.918;2023-03-20T13:10:20;7.20;;;4.47;;
17214;SDS011;8723;51.502;6.918;2023-03-20T13:12:50;6.57;;;4.60;;
17214;SDS011;8723;51.502;6.918;2023-03-20T13:15:24;6.30;;;5.13;;
17214;SDS011;8723;51.502;6.918;2023-03-20T13:17:57;7.07;;;4.23;;
17214;SDS011;8723;51.502;6.918;2023-03-20T13:20:27;7.25;;;5.13;;
17214;SDS011;8723;51.502;6.918;2023-03-20T13:23:00;8.15;;;4.70;;
17214;SDS011;8723;51.502;6.918;2023-03-20T13:25:36;6.40;;;4.25;;
17214;SDS011;8723;51.502;6.918;2023-03-20T13:28:11;7.88;;;4.68;;
17214;SDS011;8723;51.502;6.918;2023-03-20T13:30:41;7.50;;;5.70;;
17214;SDS011;8723;51.502;6.918;2023-03-20T13:33:15;9.90;;;7.15;;
17214;SDS011;8723;51.502;6.918;2023-03-20T13:35:47;6.75;;;5.07;;
17214;SDS011;8723;51.502;6.918;2023-03-20T13:38:18;7.38;;;5.20;;
17214;SDS011;8723;51.502;6.918;2023-03-20T13:40:46;7.13;;;4.80;;
17214;SDS011;8723;51.502;6.918;2023-03-20T13:43:19;7.05;;;4.70;;
17214;SDS011;8723;51.502;6.918;2023-03-20T13:45:50;9.05;;;4.60;;
17214;SDS011;8723;51.502;6.918;2023-03-20T13:48:24;6.45;;;4.15;;
17214;SDS011;8723;51.502;6.918;2023-03-20T13:50:56;6.43;;;3.90;;
17214;SDS011;8723;51.502;6.918;2023-03-20T13:53:29;5.35;;;3.90;;
17214;SDS011;8723;51.502;6.918;2023-03-20T13:56:02;5.72;;;4.00;;
17214;SDS011;8723;51.502;6.918;2023-03-20T13:58:42;6.10;;;4.05;;
17214;SDS011;8723;51.502;6.918;2023-03-20T14:01:14;5.55;;;3.72;;
17214;SDS011;8723;51.502;6.918;2023-03-20T14:03:45;8.57;;;4.35;;
17214;SDS011;8723;51.502;6.918;2023-03-20T14:06:17;7.90;;;4.63;;
17214;SDS011;8723;51.502;6.918;2023-03-20T14:08:51;5.47;;;4.30;;
17214;SDS011;8723;51.502;6.918;2023-03-20T14:11:25;7.43;;;4.25;;
17214;SDS011;8723;51.502;6.918;2023-03-20T14:14:02;7.82;;;4.80;;
17214;SDS011;8723;51.502;6.918;2023-03-20T14:16:32;4.60;;;3.72;;
17214;SDS011;8723;51.502;6.918;2023-03-20T14:19:03;5.43;;;4.07;;
17214;SDS011;8723;51.502;6.918;2023-03-20T14:21:32;6.72;;;4.47;;
17214;SDS011;8723;51.502;6.918;2023-03-20T14:24:02;7.23;;;4.70;;
17214;SDS011;8723;51.502;6.918;2023-03-20T14:26:30;7.35;;;5.30;;
17214;SDS011;8723;51.502;6.918;2023-03-20T14:28:58;7.28;;;4.80;;
17214;SDS011;8723;51.502;6.918;2023-03-20T14:31:27;6.60;;;4.38;;
17214;SDS011;8723;51.502;6.918;2023-03-20T14:33:58;8.73;;;5.13;;
17214;SDS011;8723;51.502;6.918;2023-03-20T14:36:26;6.00;;;4.00;;
17214;SDS011;8723;51.502;6.918;2023-03-20T14:38:56;9.50;;;5.38;;
17214;SDS011;8723;51.502;6.918;2023-03-20T14:41:27;6.38;;;4.07;;
17214;SDS011;8723;51.502;6.918;2023-03-20T14:46:26;4.93;;;4.10;;
17214;SDS011;8723;51.502;6.918;2023-03-20T14:48:58;7.80;;;4.25;;
17214;SDS011;8723;51.502;6.918;2023-03-20T14:51:30;9.30;;;5.07;;
17214;SDS011;8723;51.502;6.918;2023-03-20T14:56:43;8.13;;;5.25;;
17214;SDS011;8723;51.502;6.918;2023-03-20T14:59:10;7.87;;;4.83;;
17214;SDS011;8723;51.502;6.918;2023-03-20T15:01:47;7.55;;;5.00;;
17214;SDS011;8723;51.502;6.918;2023-03-20T15:04:21;6.32;;;3.63;;
17214;SDS011;8723;51.502;6.918;2023-03-20T15:06:50;8.55;;;5.40;;
17214;SDS011;8723;51.502;6.918;2023-03-20T15:09:19;9.70;;;4.97;;
17214;SDS011;8723;51.502;6.918;2023-03-20T15:11:49;9.77;;;4.63;;
17214;SDS011;8723;51.502;6.918;2023-03-20T15:14:17;8.95;;;4.88;;